Time;durP1;ratioP1;P1;durP2;ratioP2;P2;SDS_P1;SDS_P2;PMS_P1;PMS_P2;Temp;Humidity;BMP_temperature;BMP_pressure;BME280_temperature;BME280_humidity;BME280_pressure;Samples;Min_cycle;Max_cycle;Signal;HPM_P1;HPM_P2
2022/02/25 00:01:57;;;;;;;11.82;1.95;;;;;;;;;;5034578;28;20029;-64
2022/02/25 00:04:23;;;;;;;18.67;2.17;;;;;;;;;;5034670;28;20069;-65
2022/02/25 00:06:49;;;;;;;11.40;2.00;;;;;;;;;;5017024;28;20500;-64
2022/02/25 00:09:15;;;;;;;13.15;1.70;;;;;;;;;;5029083;28;20040;-64
2022/02/25 00:11:41;;;;;;;5.82;1.88;;;;;;;;;;5024326;28;20034;-64
2022/02/25 00:14:07;;;;;;;10.15;1.85;;;;;;;;;;5034451;28;20029;-64
2022/02/25 00:16:33;;;;;;;13.10;2.25;;;;;;;;;;5034492;28;20029;-64
2022/02/25 00:18:59;;;;;;;7.35;1.52;;;;;;;;;;5033215;28;20028;-64
2022/02/25 00:21:25;;;;;;;9.65;2.47;;;;;;;;;;5034046;28;20574;-64
2022/02/25 00:23:51;;;;;;;8.55;1.80;;;;;;;;;;5016514;28;20057;-64
2022/02/25 00:26:17;;;;;;;19.20;2.30;;;;;;;;;;5028527;28;20026;-64
2022/02/25 00:28:43;;;;;;;7.38;1.75;;;;;;;;;;5004387;28;20109;-64
2022/02/25 00:31:08;;;;;;;9.75;1.90;;;;;;;;;;4994416;28;20062;-64
2022/02/25 00:33:34;;;;;;;6.45;1.77;;;;;;;;;;4994636;28;20030;-64
2022/02/25 00:36:00;;;;;;;8.15;1.70;;;;;;;;;;5006166;28;20441;-64
2022/02/25 00:38:26;;;;;;;7.30;1.70;;;;;;;;;;5014218;28;20076;-65
2022/02/25 00:40:52;;;;;;;13.20;2.03;;;;;;;;;;4995669;28;20022;-65
2022/02/25 00:43:18;;;;;;;7.40;1.80;;;;;;;;;;5014133;28;20113;-65
2022/02/25 00:45:44;;;;;;;9.07;1.77;;;;;;;;;;5014086;28;20033;-65
2022/02/25 00:48:10;;;;;;;7.18;1.77;;;;;;;;;;5014125;28;20025;-65
2022/02/25 00:50:36;;;;;;;6.68;1.40;;;;;;;;;;5014061;28;20080;-65
2022/02/25 00:53:02;;;;;;;5.95;1.70;;;;;;;;;;5013695;28;20033;-66
2022/02/25 00:55:28;;;;;;;8.13;2.00;;;;;;;;;;4995678;28;20025;-65
2022/02/25 00:57:57;;;;;;;11.35;2.17;;;;;;;;;;5025595;28;20044;-66
2022/02/25 01:00:23;;;;;;;9.35;1.75;;;;;;;;;;5033557;28;20021;-65
2022/02/25 01:02:49;;;;;;;10.60;2.22;;;;;;;;;;5033380;28;20080;-66
2022/02/25 01:05:15;;;;;;;9.15;2.03;;;;;;;;;;5033482;28;20053;-65
2022/02/25 01:07:42;;;;;;;10.70;1.83;;;;;;;;;;5033590;28;20353;-64
2022/02/25 01:10:09;;;;;;;8.70;1.85;;;;;;;;;;5033350;28;20493;-64
2022/02/25 01:12:35;;;;;;;9.13;1.60;;;;;;;;;;5033130;28;20041;-64
2022/02/25 01:15:01;;;;;;;7.13;1.83;;;;;;;;;;5033411;28;20032;-64
2022/02/25 01:17:30;;;;;;;13.65;1.88;;;;;;;;;;5033358;28;20025;-64
2022/02/25 01:19:59;;;;;;;9.73;1.80;;;;;;;;;;5033231;28;20092;-64
2022/02/25 01:22:26;;;;;;;10.80;2.40;;;;;;;;;;5015208;28;20101;-65
2022/02/25 01:24:52;;;;;;;6.80;1.48;;;;;;;;;;5015395;28;20040;-64
2022/02/25 01:27:18;;;;;;;9.95;2.10;;;;;;;;;;5015690;28;20501;-65
2022/02/25 01:29:44;;;;;;;10.63;2.30;;;;;;;;;;5015134;28;20048;-65
2022/02/25 01:32:10;;;;;;;11.85;2.08;;;;;;;;;;5024403;28;20021;-64
2022/02/25 01:34:36;;;;;;;7.15;1.92;;;;;;;;;;5032671;28;20112;-65
2022/02/25 01:37:02;;;;;;;7.38;1.95;;;;;;;;;;5013181;28;20084;-65
2022/02/25 01:39:28;;;;;;;11.15;2.17;;;;;;;;;;5013040;28;20033;-65
2022/02/25 01:41:55;;;;;;;12.05;2.10;;;;;;;;;;5011775;28;20101;-65
2022/02/25 01:44:22;;;;;;;9.20;2.10;;;;;;;;;;5012896;28;20385;-65
2022/02/25 01:47:06;;;;;;;9.98;1.63;;;;;;;;;;4995610;28;20495;-64
2022/02/25 01:49:33;;;;;;;16.33;2.65;;;;;;;;;;5012940;28;20034;-65
2022/02/25 01:52:00;;;;;;;8.85;2.20;;;;;;;;;;5012928;28;20057;-65
2022/02/25 01:54:27;;;;;;;9.25;1.75;;;;;;;;;;4995092;28;20041;-65
2022/02/25 01:56:57;;;;;;;12.00;2.10;;;;;;;;;;5015785;28;20029;-65
2022/02/25 01:59:23;;;;;;;8.27;1.88;;;;;;;;;;5024590;28;20037;-65
2022/02/25 02:01:49;;;;;;;12.95;2.47;;;;;;;;;;5032479;28;20022;-65
2022/02/25 02:04:15;;;;;;;9.10;1.90;;;;;;;;;;5032251;28;20033;-65
2022/02/25 02:06:41;;;;;;;7.38;2.00;;;;;;;;;;5032725;28;20435;-63
2022/02/25 02:09:08;;;;;;;10.13;2.15;;;;;;;;;;5032359;28;20507;-65
2022/02/25 02:11:45;;;;;;;11.15;2.15;;;;;;;;;;5014421;28;20084;-66
2022/02/25 02:14:13;;;;;;;11.55;2.38;;;;;;;;;;5029273;28;20109;-65
2022/02/25 02:16:39;;;;;;;9.27;2.55;;;;;;;;;;5006458;28;20475;-65
2022/02/25 02:19:05;;;;;;;9.20;2.25;;;;;;;;;;5032330;28;20562;-64
2022/02/25 02:21:31;;;;;;;10.10;2.00;;;;;;;;;;5031866;28;20022;-64
2022/02/25 02:23:59;;;;;;;13.20;1.83;;;;;;;;;;5031619;28;20029;-64
2022/02/25 02:26:27;;;;;;;11.77;2.35;;;;;;;;;;5032033;28;20072;-64
2022/02/25 02:28:53;;;;;;;10.77;2.65;;;;;;;;;;5020054;28;20022;-65
2022/02/25 02:31:19;;;;;;;10.23;1.90;;;;;;;;;;5011255;28;20046;-64
2022/02/25 02:33:45;;;;;;;8.52;1.85;;;;;;;;;;5020436;28;20026;-64
2022/02/25 02:36:12;;;;;;;11.60;2.25;;;;;;;;;;4999178;28;20061;-64
2022/02/25 02:38:39;;;;;;;13.07;2.58;;;;;;;;;;4992715;28;20073;-64
2022/02/25 02:41:06;;;;;;;10.20;2.10;;;;;;;;;;4992147;28;20054;-64
2022/02/25 02:43:32;;;;;;;9.75;1.90;;;;;;;;;;4992810;28;20045;-65
2022/02/25 02:45:58;;;;;;;7.43;1.65;;;;;;;;;;4992789;28;20027;-65
2022/02/25 02:48:25;;;;;;;12.48;2.63;;;;;;;;;;5007918;28;20032;-65
2022/02/25 02:50:51;;;;;;;9.35;2.17;;;;;;;;;;5023528;28;20423;-65
2022/02/25 02:53:17;;;;;;;11.00;2.83;;;;;;;;;;5017472;28;20124;-65
2022/02/25 02:55:43;;;;;;;16.33;2.40;;;;;;;;;;5036138;28;20033;-65
2022/02/25 02:58:10;;;;;;;8.85;2.38;;;;;;;;;;5035869;28;20460;-65
2022/02/25 03:00:36;;;;;;;14.38;2.33;;;;;;;;;;5035776;28;20028;-65
2022/02/25 03:03:02;;;;;;;11.82;2.33;;;;;;;;;;5031405;28;20096;-65
2022/02/25 03:05:28;;;;;;;9.77;2.10;;;;;;;;;;5024042;28;20041;-64
2022/02/25 03:07:54;;;;;;;11.25;2.78;;;;;;;;;;5035724;28;20021;-64
2022/02/25 03:10:20;;;;;;;10.88;2.70;;;;;;;;;;5035657;28;20076;-64
2022/02/25 03:12:46;;;;;;;15.23;2.42;;;;;;;;;;5035469;28;20056;-64
2022/02/25 03:15:13;;;;;;;12.18;2.67;;;;;;;;;;5035710;28;20052;-65
2022/02/25 03:17:39;;;;;;;13.25;2.85;;;;;;;;;;5035485;28;20022;-65
2022/02/25 03:20:06;;;;;;;14.80;2.65;;;;;;;;;;5031082;28;20030;-65
2022/02/25 03:22:32;;;;;;;12.38;2.88;;;;;;;;;;5023844;28;20392;-65
2022/02/25 03:24:58;;;;;;;8.60;2.28;;;;;;;;;;5035151;28;20416;-65
2022/02/25 03:27:25;;;;;;;13.82;2.65;;;;;;;;;;5035136;28;20538;-65
2022/02/25 03:29:51;;;;;;;12.07;2.47;;;;;;;;;;5015456;28;20527;-65
2022/02/25 03:32:17;;;;;;;13.27;2.65;;;;;;;;;;4997888;28;20077;-65
2022/02/25 03:34:44;;;;;;;10.82;2.55;;;;;;;;;;5013948;28;20396;-65
2022/02/25 03:37:10;;;;;;;11.18;2.17;;;;;;;;;;4995799;28;20034;-65
2022/02/25 03:39:36;;;;;;;7.93;2.15;;;;;;;;;;4995765;28;20029;-65
2022/02/25 03:42:02;;;;;;;11.45;2.90;;;;;;;;;;4994982;28;20064;-65
2022/02/25 03:44:28;;;;;;;14.68;2.90;;;;;;;;;;4995529;28;20038;-65
2022/02/25 03:46:54;;;;;;;6.72;1.92;;;;;;;;;;4995681;28;20038;-64
2022/02/25 03:49:20;;;;;;;10.77;2.75;;;;;;;;;;4995358;28;20027;-65
2022/02/25 03:51:46;;;;;;;12.07;2.38;;;;;;;;;;4995492;28;20600;-64
2022/02/25 03:54:12;;;;;;;11.10;2.45;;;;;;;;;;5000430;28;20362;-64
2022/02/25 03:56:38;;;;;;;10.48;2.53;;;;;;;;;;5024334;28;20033;-63
2022/02/25 03:59:04;;;;;;;13.88;2.85;;;;;;;;;;5034960;28;20022;-64
2022/02/25 04:01:30;;;;;;;12.88;2.50;;;;;;;;;;5034901;28;20036;-64
2022/02/25 04:03:56;;;;;;;12.35;2.42;;;;;;;;;;5033824;28;20017;-64
2022/02/25 04:06:22;;;;;;;23.45;3.42;;;;;;;;;;5034680;28;20081;-65
2022/02/25 04:08:48;;;;;;;26.27;3.00;;;;;;;;;;5026356;28;20064;-64
2022/02/25 04:11:14;;;;;;;14.25;2.70;;;;;;;;;;5026823;28;20484;-64
2022/02/25 04:13:41;;;;;;;17.08;3.10;;;;;;;;;;5026182;28;20018;-64
2022/02/25 04:16:07;;;;;;;13.38;2.28;;;;;;;;;;5034360;28;20037;-64
2022/02/25 04:18:34;;;;;;;15.52;2.72;;;;;;;;;;5034421;28;20026;-64
2022/02/25 04:21:00;;;;;;;12.63;2.53;;;;;;;;;;5034167;28;20029;-64
2022/02/25 04:23:26;;;;;;;15.15;2.85;;;;;;;;;;5034261;28;20037;-65
2022/02/25 04:25:52;;;;;;;10.73;2.45;;;;;;;;;;5033931;28;20025;-64
2022/02/25 04:28:18;;;;;;;12.88;2.88;;;;;;;;;;5026486;28;20029;-64
2022/02/25 04:30:45;;;;;;;11.02;3.00;;;;;;;;;;5015587;28;20049;-65
2022/02/25 04:33:11;;;;;;;12.75;2.38;;;;;;;;;;5025596;28;20037;-65
2022/02/25 04:35:37;;;;;;;10.75;2.47;;;;;;;;;;5025590;28;20030;-64
2022/02/25 04:38:03;;;;;;;12.68;2.63;;;;;;;;;;5014321;28;20018;-65
2022/02/25 04:40:29;;;;;;;8.57;2.10;;;;;;;;;;5013901;28;20109;-64
2022/02/25 04:42:55;;;;;;;14.05;2.95;;;;;;;;;;5014189;28;20156;-64
2022/02/25 04:45:22;;;;;;;12.68;2.53;;;;;;;;;;5013987;28;20030;-65
2022/02/25 04:47:48;;;;;;;8.35;2.58;;;;;;;;;;5014151;28;20079;-63
2022/02/25 04:50:14;;;;;;;18.80;3.60;;;;;;;;;;5013972;28;20030;-64
2022/02/25 04:52:41;;;;;;;9.32;2.47;;;;;;;;;;5013776;28;20030;-64
2022/02/25 04:55:07;;;;;;;15.60;2.67;;;;;;;;;;5014017;28;20435;-63
2022/02/25 04:57:33;;;;;;;9.88;2.42;;;;;;;;;;5014136;28;20029;-64
2022/02/25 04:59:59;;;;;;;18.27;3.15;;;;;;;;;;5013607;28;20476;-64
2022/02/25 05:02:25;;;;;;;15.32;3.03;;;;;;;;;;5013574;28;20037;-64
2022/02/25 05:04:51;;;;;;;16.35;3.13;;;;;;;;;;4995801;28;20045;-64
2022/02/25 05:07:17;;;;;;;11.07;3.03;;;;;;;;;;5019532;28;20022;-64
2022/02/25 05:09:43;;;;;;;16.08;2.85;;;;;;;;;;5024979;28;20044;-63
2022/02/25 05:12:09;;;;;;;13.18;2.40;;;;;;;;;;5033418;28;20621;-64
2022/02/25 05:22:50;;;;;;;14.02;3.05;;;;;;;;;;5033140;28;20112;-64
2022/02/25 05:25:16;;;;;;;13.82;3.20;;;;;;;;;;5007805;28;20132;-64
2022/02/25 05:27:42;;;;;;;12.07;2.20;;;;;;;;;;5022156;28;20621;-64
2022/02/25 05:30:09;;;;;;;12.55;2.78;;;;;;;;;;5012205;28;20030;-63
2022/02/25 05:32:34;;;;;;;13.57;2.30;;;;;;;;;;5012912;28;20113;-64
2022/02/25 05:35:01;;;;;;;12.18;2.85;;;;;;;;;;5013316;28;20134;-63
2022/02/25 05:37:27;;;;;;;18.70;3.53;;;;;;;;;;5013610;28;20038;-63
2022/02/25 05:39:53;;;;;;;10.40;2.40;;;;;;;;;;5013205;28;20072;-63
2022/02/25 05:42:19;;;;;;;13.15;3.10;;;;;;;;;;5012419;28;20072;-64
2022/02/25 05:44:45;;;;;;;14.98;2.70;;;;;;;;;;5012886;28;20128;-64
2022/02/25 05:47:11;;;;;;;13.35;3.00;;;;;;;;;;5013457;28;20029;-64
2022/02/25 05:49:37;;;;;;;12.25;2.50;;;;;;;;;;5013070;28;20121;-63
2022/02/25 05:52:03;;;;;;;11.88;2.60;;;;;;;;;;5012807;28;20022;-64
2022/02/25 05:54:29;;;;;;;11.95;2.85;;;;;;;;;;5012724;28;20048;-64
2022/02/25 05:56:55;;;;;;;8.65;2.10;;;;;;;;;;5015719;28;20040;-63
2022/02/25 05:59:21;;;;;;;15.45;2.70;;;;;;;;;;5024300;28;20397;-63
2022/02/25 06:01:47;;;;;;;13.00;2.53;;;;;;;;;;5032485;28;20053;-64
2022/02/25 06:04:13;;;;;;;12.05;1.90;;;;;;;;;;5032481;28;20029;-65
2022/02/25 06:06:39;;;;;;;14.57;2.70;;;;;;;;;;5032384;28;20048;-65
2022/02/25 06:09:05;;;;;;;8.27;2.13;;;;;;;;;;5032452;28;20033;-65
2022/02/25 06:11:31;;;;;;;15.07;2.40;;;;;;;;;;5028964;28;20037;-66
2022/02/25 06:13:57;;;;;;;9.88;1.95;;;;;;;;;;5006563;28;20133;-65
2022/02/25 06:16:23;;;;;;;10.32;2.00;;;;;;;;;;5010608;28;20037;-65
2022/02/25 06:18:49;;;;;;;8.50;2.17;;;;;;;;;;5014709;28;20041;-65
2022/02/25 06:21:18;;;;;;;13.55;2.33;;;;;;;;;;5030999;28;20069;-64
2022/02/25 06:23:44;;;;;;;12.57;2.42;;;;;;;;;;5031711;28;20029;-64
2022/02/25 06:26:10;;;;;;;11.93;2.03;;;;;;;;;;5014290;28;20021;-64
2022/02/25 06:28:36;;;;;;;13.40;1.92;;;;;;;;;;5022242;28;20113;-65
2022/02/25 06:31:02;;;;;;;14.80;2.92;;;;;;;;;;5009828;28;20892;-65
2022/02/25 06:33:28;;;;;;;9.48;2.00;;;;;;;;;;5020338;28;20026;-65
2022/02/25 06:35:54;;;;;;;7.72;1.98;;;;;;;;;;5021166;28;20036;-64
2022/02/25 06:38:20;;;;;;;11.60;2.33;;;;;;;;;;5012420;28;20141;-65
2022/02/25 06:40:46;;;;;;;8.65;2.05;;;;;;;;;;5011505;28;20634;-65
2022/02/25 06:43:12;;;;;;;9.48;2.67;;;;;;;;;;5012151;28;20109;-65
2022/02/25 06:45:38;;;;;;;9.98;2.20;;;;;;;;;;5012247;28;20077;-66
2022/02/25 06:48:04;;;;;;;13.40;2.33;;;;;;;;;;5018722;28;20060;-68
2022/02/25 06:50:30;;;;;;;23.52;2.58;;;;;;;;;;5028076;28;20033;-65
2022/02/25 06:52:56;;;;;;;34.08;2.55;;;;;;;;;;5031323;28;20035;-68
2022/02/25 06:55:22;;;;;;;58.83;3.20;;;;;;;;;;5031374;28;20022;-67
2022/02/25 06:57:48;;;;;;;31.20;3.03;;;;;;;;;;5031236;28;20108;-64
2022/02/25 07:00:21;;;;;;;44.13;3.00;;;;;;;;;;5031092;28;20029;-66
2022/02/25 07:02:47;;;;;;;22.13;2.53;;;;;;;;;;5031083;28;20771;-65
2022/02/25 07:05:13;;;;;;;22.58;2.40;;;;;;;;;;5013170;28;20559;-67
2022/02/25 07:07:39;;;;;;;27.38;2.85;;;;;;;;;;5031243;28;20028;-63
2022/02/25 07:10:06;;;;;;;12.80;2.63;;;;;;;;;;5031122;28;20459;-64
2022/02/25 07:12:32;;;;;;;24.70;2.78;;;;;;;;;;5013476;28;20025;-65
2022/02/25 07:14:58;;;;;;;32.80;2.65;;;;;;;;;;5031048;28;20061;-67
2022/02/25 07:17:24;;;;;;;10.52;2.05;;;;;;;;;;5030799;28;20076;-67
2022/02/25 07:19:50;;;;;;;19.63;3.25;;;;;;;;;;5031140;28;20038;-67
2022/02/25 07:22:17;;;;;;;11.68;2.55;;;;;;;;;;5009796;28;20393;-66
2022/02/25 07:24:43;;;;;;;22.27;2.70;;;;;;;;;;5002782;28;20026;-66
2022/02/25 07:27:09;;;;;;;21.42;3.28;;;;;;;;;;5011339;28;20440;-66
2022/02/25 07:29:35;;;;;;;16.92;2.58;;;;;;;;;;4993619;28;20041;-66
2022/02/25 07:32:01;;;;;;;19.85;2.33;;;;;;;;;;4991528;28;20070;-66
2022/02/25 07:34:27;;;;;;;10.48;2.47;;;;;;;;;;4991562;28;20027;-66
2022/02/25 07:36:54;;;;;;;10.15;2.58;;;;;;;;;;5010376;28;20061;-66
2022/02/25 07:39:21;;;;;;;12.27;2.45;;;;;;;;;;5019134;28;20041;-66
2022/02/25 07:41:47;;;;;;;14.00;2.60;;;;;;;;;;5025864;28;20049;-67
2022/02/25 07:44:13;;;;;;;12.43;2.65;;;;;;;;;;5034834;28;20103;-65
2022/02/25 07:46:39;;;;;;;20.15;2.40;;;;;;;;;;5034275;28;20381;-65
2022/02/25 07:49:05;;;;;;;13.02;2.50;;;;;;;;;;5034224;28;20053;-67
2022/02/25 07:51:31;;;;;;;12.88;2.72;;;;;;;;;;5033714;28;20033;-66
2022/02/25 07:54:01;;;;;;;15.50;2.83;;;;;;;;;;5034397;28;20056;-66
2022/02/25 07:56:27;;;;;;;17.48;2.38;;;;;;;;;;5034221;28;20032;-63
2022/02/25 07:58:53;;;;;;;20.52;2.47;;;;;;;;;;5034245;28;20025;-64
2022/02/25 08:01:19;;;;;;;14.02;2.80;;;;;;;;;;5016337;28;20078;-68
2022/02/25 08:03:45;;;;;;;16.42;2.90;;;;;;;;;;5016166;28;20119;-65
2022/02/25 08:06:11;;;;;;;11.73;2.83;;;;;;;;;;5033911;28;20049;-64
2022/02/25 08:08:37;;;;;;;12.63;2.55;;;;;;;;;;5033922;28;20025;-63
2022/02/25 08:11:04;;;;;;;19.33;2.45;;;;;;;;;;5013354;28;20041;-64
2022/02/25 08:13:30;;;;;;;16.52;2.22;;;;;;;;;;5022579;28;20389;-65
2022/02/25 08:15:56;;;;;;;43.92;3.60;;;;;;;;;;5033772;28;20087;-65
2022/02/25 08:18:22;;;;;;;23.83;2.88;;;;;;;;;;5033945;28;20033;-65
2022/02/25 08:20:48;;;;;;;74.82;3.83;;;;;;;;;;5033767;28;20036;-65
2022/02/25 08:23:14;;;;;;;56.28;3.65;;;;;;;;;;5033659;28;20080;-64
2022/02/25 08:25:40;;;;;;;23.70;2.60;;;;;;;;;;5034027;28;20022;-63
2022/02/25 08:28:07;;;;;;;57.22;3.85;;;;;;;;;;5027923;28;20018;-65
2022/02/25 08:30:33;;;;;;;26.63;3.13;;;;;;;;;;5013651;28;20033;-65
2022/02/25 08:33:02;;;;;;;26.90;3.05;;;;;;;;;;4996109;28;20434;-68
2022/02/25 08:35:32;;;;;;;37.85;3.03;;;;;;;;;;5013869;28;20319;-67
2022/02/25 08:37:58;;;;;;;24.02;2.42;;;;;;;;;;5012892;28;20054;-68
2022/02/25 08:40:27;;;;;;;22.70;3.17;;;;;;;;;;5021323;28;20080;-67
2022/02/25 08:42:53;;;;;;;14.05;2.97;;;;;;;;;;5033267;28;20064;-68
2022/02/25 08:45:19;;;;;;;15.07;2.58;;;;;;;;;;4995984;28;20041;-71
2022/02/25 08:47:46;;;;;;;16.88;3.05;;;;;;;;;;4986438;28;20057;-68
2022/02/25 08:50:14;;;;;;;25.33;3.20;;;;;;;;;;4977548;28;20026;-68
2022/02/25 08:52:43;;;;;;;13.40;2.70;;;;;;;;;;4994702;28;20033;-69
2022/02/25 08:55:11;;;;;;;14.15;2.92;;;;;;;;;;5015045;28;20428;-67
2022/02/25 08:57:37;;;;;;;10.80;2.75;;;;;;;;;;5025471;28;20083;-65
2022/02/25 09:00:14;;;;;;;16.02;2.28;;;;;;;;;;5033019;28;20124;-65
2022/02/25 09:02:40;;;;;;;13.00;2.50;;;;;;;;;;5031977;28;20025;-67
2022/02/25 09:05:06;;;;;;;13.40;2.75;;;;;;;;;;5031712;28;20099;-68
2022/02/25 09:07:33;;;;;;;14.45;2.42;;;;;;;;;;5032535;28;20040;-66
2022/02/25 09:09:59;;;;;;;23.27;3.35;;;;;;;;;;5032310;28;20472;-68
2022/02/25 09:12:25;;;;;;;11.70;2.50;;;;;;;;;;5032441;28;20449;-68
2022/02/25 09:14:51;;;;;;;17.33;2.42;;;;;;;;;;5032831;28;20461;-67
2022/02/25 09:17:17;;;;;;;12.43;2.70;;;;;;;;;;5033286;28;20029;-65
2022/02/25 09:19:43;;;;;;;10.68;2.33;;;;;;;;;;5033326;28;20481;-65
2022/02/25 09:22:09;;;;;;;8.15;2.30;;;;;;;;;;5030908;28;20030;-65
2022/02/25 09:24:36;;;;;;;8.57;2.53;;;;;;;;;;5021840;28;20029;-65
2022/02/25 09:27:03;;;;;;;10.75;2.65;;;;;;;;;;5032245;28;20025;-65
2022/02/25 09:29:29;;;;;;;7.18;2.50;;;;;;;;;;5014922;28;20025;-65
2022/02/25 09:31:55;;;;;;;10.57;2.67;;;;;;;;;;5012019;28;20038;-65
2022/02/25 09:34:21;;;;;;;9.55;2.28;;;;;;;;;;5012368;28;20037;-65
2022/02/25 09:36:47;;;;;;;9.02;2.33;;;;;;;;;;4994327;28;20034;-65
2022/02/25 09:39:13;;;;;;;10.15;2.55;;;;;;;;;;4992698;28;20062;-65
2022/02/25 09:41:39;;;;;;;9.07;2.33;;;;;;;;;;4992228;28;20026;-65
2022/02/25 09:44:06;;;;;;;8.93;2.15;;;;;;;;;;4992445;28;20454;-65
2022/02/25 09:46:33;;;;;;;8.65;2.55;;;;;;;;;;4992585;28;20112;-65
2022/02/25 09:48:59;;;;;;;10.23;2.25;;;;;;;;;;4992757;28;20042;-66
2022/02/25 09:51:25;;;;;;;9.95;2.55;;;;;;;;;;4992353;28;20056;-65
2022/02/25 09:53:51;;;;;;;7.20;2.30;;;;;;;;;;4992236;28;20470;-65
2022/02/25 09:56:17;;;;;;;8.73;2.30;;;;;;;;;;4992885;28;20491;-65
2022/02/25 09:58:44;;;;;;;8.48;2.33;;;;;;;;;;5017727;28;20085;-64
2022/02/25 10:01:11;;;;;;;8.00;2.00;;;;;;;;;;4991890;28;20032;-65
2022/02/25 10:03:38;;;;;;;10.13;2.20;;;;;;;;;;4992253;28;20015;-65
2022/02/25 10:06:09;;;;;;;8.40;2.15;;;;;;;;;;4992108;28;20442;-65
2022/02/25 10:08:35;;;;;;;9.88;2.85;;;;;;;;;;4991998;28;20041;-65
2022/02/25 10:11:02;;;;;;;8.35;2.00;;;;;;;;;;4992018;28;20038;-65
2022/02/25 10:13:29;;;;;;;11.05;2.55;;;;;;;;;;4974529;28;20026;-65
2022/02/25 10:15:57;;;;;;;11.25;3.00;;;;;;;;;;4991994;28;20389;-65
2022/02/25 10:18:24;;;;;;;10.65;2.45;;;;;;;;;;4992342;28;20034;-66
2022/02/25 10:20:50;;;;;;;8.32;2.20;;;;;;;;;;4984149;28;20030;-66
2022/02/25 10:23:22;;;;;;;10.90;2.58;;;;;;;;;;4992675;28;20516;-64
2022/02/25 10:25:48;;;;;;;12.18;2.60;;;;;;;;;;4992504;28;20117;-65
2022/02/25 10:28:14;;;;;;;9.68;2.42;;;;;;;;;;4999366;28;20066;-64
2022/02/25 10:30:40;;;;;;;12.07;2.60;;;;;;;;;;5011977;28;20056;-66
2022/02/25 10:33:06;;;;;;;10.35;2.60;;;;;;;;;;5017495;28;20025;-65
2022/02/25 10:35:34;;;;;;;11.07;2.70;;;;;;;;;;5023908;28;20028;-65
2022/02/25 10:38:10;;;;;;;13.73;2.60;;;;;;;;;;5011772;28;20026;-64
2022/02/25 10:40:54;;;;;;;8.73;2.17;;;;;;;;;;5011743;28;20025;-65
2022/02/25 10:43:20;;;;;;;13.02;2.38;;;;;;;;;;5012218;28;20026;-64
2022/02/25 10:45:47;;;;;;;9.23;2.30;;;;;;;;;;5012320;28;20030;-65
2022/02/25 10:48:17;;;;;;;9.40;3.15;;;;;;;;;;4994062;28;20022;-65
2022/02/25 10:50:49;;;;;;;12.95;2.85;;;;;;;;;;5011611;28;20129;-66
2022/02/25 10:53:16;;;;;;;8.53;2.30;;;;;;;;;;5011379;28;20389;-65
2022/02/25 10:55:42;;;;;;;7.97;2.55;;;;;;;;;;4993707;28;20034;-65
2022/02/25 10:58:08;;;;;;;9.00;2.20;;;;;;;;;;5024936;28;20025;-66
2022/02/25 11:00:34;;;;;;;9.63;2.10;;;;;;;;;;5013353;28;20350;-65
2022/02/25 11:03:01;;;;;;;11.55;2.80;;;;;;;;;;5031039;28;20026;-65
2022/02/25 11:05:31;;;;;;;7.75;2.35;;;;;;;;;;5030939;28;20573;-65
2022/02/25 11:07:58;;;;;;;15.85;2.65;;;;;;;;;;5031134;28;20026;-65
2022/02/25 11:10:25;;;;;;;9.68;2.30;;;;;;;;;;5031333;28;20061;-65
2022/02/25 11:12:52;;;;;;;10.95;2.33;;;;;;;;;;4996735;28;20018;-65
2022/02/25 11:15:23;;;;;;;9.10;2.08;;;;;;;;;;5020285;28;20041;-65
2022/02/25 11:17:50;;;;;;;12.70;2.58;;;;;;;;;;5015404;28;20033;-65
2022/02/25 11:20:26;;;;;;;9.27;2.63;;;;;;;;;;5015509;28;20034;-65
2022/02/25 11:22:54;;;;;;;12.20;2.63;;;;;;;;;;5014942;28;20026;-65
2022/02/25 11:25:20;;;;;;;14.02;2.90;;;;;;;;;;5015015;28;20038;-65
2022/02/25 11:27:47;;;;;;;12.05;2.38;;;;;;;;;;5012058;28;20030;-65
2022/02/25 11:30:20;;;;;;;11.10;2.60;;;;;;;;;;4977769;28;20031;-64
2022/02/25 11:33:00;;;;;;;15.20;3.40;;;;;;;;;;4995178;28;20035;-68
2022/02/25 11:35:28;;;;;;;10.07;2.60;;;;;;;;;;5002274;28;20022;-65
2022/02/25 11:38:00;;;;;;;14.15;2.83;;;;;;;;;;5014838;28;20514;-65
2022/02/25 11:40:56;;;;;;;27.13;3.58;;;;;;;;;;5014954;28;20028;-68
2022/02/25 11:43:31;;;;;;;12.48;3.03;;;;;;;;;;5005726;28;20772;-66
2022/02/25 11:45:57;;;;;;;15.85;3.13;;;;;;;;;;5021972;28;20053;-66
2022/02/25 11:48:28;;;;;;;21.33;3.40;;;;;;;;;;4981649;28;20065;-69
2022/02/25 11:50:55;;;;;;;20.10;3.38;;;;;;;;;;4994891;28;20038;-67
2022/02/25 11:53:26;;;;;;;23.80;3.90;;;;;;;;;;4994896;28;20026;-70
2022/02/25 11:55:53;;;;;;;27.33;3.85;;;;;;;;;;4977620;28;20209;-70
2022/02/25 11:58:40;;;;;;;20.55;3.05;;;;;;;;;;4994802;28;20035;-66
2022/02/25 12:01:07;;;;;;;18.27;2.80;;;;;;;;;;4994736;28;20026;-66
2022/02/25 12:03:36;;;;;;;20.58;3.70;;;;;;;;;;4994951;28;20018;-66
2022/02/25 12:06:02;;;;;;;16.48;3.25;;;;;;;;;;4994488;28;20047;-63
2022/02/25 12:08:29;;;;;;;16.05;3.20;;;;;;;;;;4994696;28;20489;-64
2022/02/25 12:10:59;;;;;;;21.25;3.58;;;;;;;;;;4994579;28;20034;-65
2022/02/25 12:13:26;;;;;;;20.42;3.25;;;;;;;;;;5013452;28;20075;-64
2022/02/25 12:15:52;;;;;;;19.15;4.28;;;;;;;;;;5025747;28;20109;-64
2022/02/25 12:18:19;;;;;;;17.98;3.35;;;;;;;;;;5034079;28;20029;-64
2022/02/25 12:20:51;;;;;;;17.55;3.95;;;;;;;;;;5033820;28;20503;-65
2022/02/25 12:23:20;;;;;;;;;;;;;;;;;;5034728;28;20026;-64
2022/02/25 12:25:47;;;;;;;17.73;3.28;;;;;;;;;;5033236;28;20319;-64
2022/02/25 12:28:28;;;;;;;24.15;3.72;;;;;;;;;;5027294;28;20022;-64
2022/02/25 12:30:57;;;;;;;13.18;3.20;;;;;;;;;;5014033;28;20073;-63
2022/02/25 12:33:29;;;;;;;16.45;3.17;;;;;;;;;;5014041;28;20021;-64
2022/02/25 12:35:56;;;;;;;15.13;3.15;;;;;;;;;;5003070;28;20031;-63
2022/02/25 12:38:23;;;;;;;14.57;3.20;;;;;;;;;;4993944;28;20019;-64
2022/02/25 12:40:50;;;;;;;12.52;2.75;;;;;;;;;;4986182;28;20026;-64
2022/02/25 12:43:16;;;;;;;18.33;3.30;;;;;;;;;;4994771;28;20018;-64
2022/02/25 12:45:42;;;;;;;20.10;3.08;;;;;;;;;;4994100;28;20386;-64
2022/02/25 12:48:08;;;;;;;13.70;2.65;;;;;;;;;;5021324;28;20030;-64
2022/02/25 12:50:41;;;;;;;16.08;3.22;;;;;;;;;;5031057;28;20087;-64
2022/02/25 12:53:07;;;;;;;21.52;3.03;;;;;;;;;;5033248;28;20124;-65
2022/02/25 12:55:33;;;;;;;12.35;3.08;;;;;;;;;;5033793;28;20029;-64
2022/02/25 12:57:59;;;;;;;12.23;3.38;;;;;;;;;;5033501;28;20022;-63
2022/02/25 13:00:26;;;;;;;15.13;3.08;;;;;;;;;;5033445;28;20026;-63
2022/02/25 13:02:55;;;;;;;13.57;2.80;;;;;;;;;;5017881;28;20029;-63
2022/02/25 13:05:22;;;;;;;12.20;2.70;;;;;;;;;;5024971;28;20620;-65
2022/02/25 13:07:58;;;;;;;13.10;2.90;;;;;;;;;;5033753;28;20044;-71
2022/02/25 13:10:25;;;;;;;14.60;3.10;;;;;;;;;;5033616;28;20036;-66
2022/02/25 13:12:51;;;;;;;11.20;2.88;;;;;;;;;;5033197;28;20370;-66
2022/02/25 13:15:24;;;;;;;19.25;2.63;;;;;;;;;;5033362;28;20453;-66
2022/02/25 13:17:50;;;;;;;;;;;;;;;;;;5004192;28;20104;-67
2022/02/25 13:20:16;;;;;;;12.50;2.33;;;;;;;;;;5024286;28;19905;-68
2022/02/25 13:22:46;;;;;;;10.32;2.67;;;;;;;;;;5014616;28;20439;-67
2022/02/25 13:25:14;;;;;;;13.90;2.55;;;;;;;;;;5033163;28;20025;-67
2022/02/25 13:27:48;;;;;;;12.90;2.25;;;;;;;;;;5030939;28;20084;-66
2022/02/25 13:30:14;;;;;;;11.82;2.80;;;;;;;;;;5013506;28;20026;-66
2022/02/25 13:32:40;;;;;;;15.20;3.00;;;;;;;;;;5013089;28;20029;-67
2022/02/25 13:35:11;;;;;;;9.40;2.35;;;;;;;;;;5008907;28;20026;-67
2022/02/25 13:37:44;;;;;;;10.00;2.35;;;;;;;;;;4975241;28;20026;-67
2022/02/25 13:40:23;;;;;;;9.38;2.20;;;;;;;;;;4993352;28;20022;-66
2022/02/25 13:42:50;;;;;;;9.52;2.47;;;;;;;;;;4985194;28;20030;-67
2022/02/25 13:45:27;;;;;;;10.18;2.33;;;;;;;;;;4993409;28;20496;-67
2022/02/25 13:53:33;;;;;;;14.88;2.97;;;;;;;;;;5020819;28;20037;-67
2022/02/25 13:56:04;;;;;;;8.60;2.30;;;;;;;;;;5013229;28;20188;-65
2022/02/25 13:58:30;;;;;;;6.55;1.98;;;;;;;;;;5012915;28;20040;-64
2022/02/25 14:00:56;;;;;;;9.60;2.38;;;;;;;;;;5013037;28;20030;-63
2022/02/25 14:03:22;;;;;;;8.05;1.98;;;;;;;;;;5013257;28;20021;-62
2022/02/25 14:05:48;;;;;;;10.90;2.33;;;;;;;;;;5012616;28;20069;-61
2022/02/25 14:08:19;;;;;;;8.80;2.50;;;;;;;;;;5012723;28;20069;-62
2022/02/25 14:10:45;;;;;;;6.47;2.22;;;;;;;;;;5012277;28;20042;-63
2022/02/25 14:13:14;;;;;;;7.45;1.80;;;;;;;;;;5011918;28;20026;-63
2022/02/25 14:15:42;;;;;;;10.25;2.03;;;;;;;;;;5003923;28;20037;-66
2022/02/25 14:18:09;;;;;;;7.07;2.30;;;;;;;;;;4999809;28;20472;-66
2022/02/25 14:20:36;;;;;;;6.55;2.05;;;;;;;;;;5018191;28;20045;-64
2022/02/25 14:23:04;;;;;;;9.73;2.17;;;;;;;;;;4997985;28;20023;-62
2022/02/25 14:25:32;;;;;;;8.90;2.00;;;;;;;;;;5000739;28;20072;-62
2022/02/25 14:27:59;;;;;;;8.93;2.15;;;;;;;;;;5005157;28;20023;-63
2022/02/25 14:30:30;;;;;;;8.50;2.08;;;;;;;;;;4997960;28;20042;-63
2022/02/25 14:32:56;;;;;;;10.13;2.55;;;;;;;;;;4992999;28;20102;-62
2022/02/25 14:35:23;;;;;;;8.13;2.20;;;;;;;;;;4993042;28;20037;-61
2022/02/25 14:37:50;;;;;;;7.50;1.77;;;;;;;;;;4992700;28;20089;-62
2022/02/25 14:40:16;;;;;;;5.78;1.88;;;;;;;;;;4992678;28;20027;-62
2022/02/25 14:42:42;;;;;;;8.52;2.13;;;;;;;;;;4992074;28;20386;-63
2022/02/25 14:45:08;;;;;;;11.15;1.95;;;;;;;;;;4992425;28;20058;-63
2022/02/25 14:47:34;;;;;;;7.18;1.90;;;;;;;;;;4999747;28;20029;-62